Terminal Aerodrome Forecast
Issued by NWS

Home | Current Version | Previous Version | Text Only | Print | Product List | Glossary On
Versions: 1 2 3 4 5 6 7 8 9 10 11 12 13 14 15 16 17 18 19 20
787
FTUS43 KGRR 201149
TAFLAN
TAF
KLAN 201149Z 2012/2112 22012KT P6SM SKC
     FM201530 21014G24KT P6SM BKN200
     FM202000 21016G26KT P6SM BKN200=

USA.gov is the U.S. government's official web portal to all federal, state and local government web resources and services.